Terminal Aerodrome Forecast
Issued by NWS Shreveport, LA

Home | Current Version | Previous Version | Text Only | Print | Product List | Glossary On
Versions: 1 2 3 4 5 6 7 8 9 10 11 12 13 14 15
292
FTUS44 KSHV 271140
TAFTYR
TAF
KTYR 271140Z 2712/2812 18004KT P6SM SKC
     FM271400 22005KT P6SM SCT015
     FM271600 21007KT P6SM SCT030
     FM271800 21008KT P6SM SCT045 SCT250
     FM272200 19008KT P6SM VCTS BKN050CB
     FM280300 17005KT P6SM SCT050 BKN130 BKN250
     FM280900 18006KT P6SM VCSH BKN035 BKN120=

USA.gov is the U.S. government's official web portal to all federal, state and local government web resources and services.